Terminal Aerodrome Forecast
Issued by NWS

Home | Current Version | Previous Version | Text Only | Print | Product List | Glossary On
Versions: 1 2 3 4 5 6 7 8 9 10 11 12 13 14 15 16 17 18 19 20 21 22 23 24 25
000
FTUS43 KGLD 221152
TAFMCK
TAF
KMCK 221152Z 2212/2312 31012KT P6SM SCT040 BKN060
     FM221700 31022G34KT P6SM SCT040 BKN150
     FM230000 30015KT P6SM SCT050 BKN100
     FM230900 30020G30KT P6SM SCT015 BKN040 PROB30 2309/2312 2SM -SN
      SCT005 BKN015=

USA.gov is the U.S. government's official web portal to all federal, state and local government web resources and services.